SHT21C EGJB-EGLL
Flight info
| Callsign | SHT21C |
|---|---|
| Flight time | 0h 39m |
| Altitude | 19000 |
| Route | ORIST L982 ROXOG |
| Aircraft | A319/M-SDE3FGHIRWY/LB1 |
Departure
| Time | 2026-04-22 15:11 |
|---|---|
| Airport | Guernsey Airport (EGJB) |
Arrival
| Time | 2026-04-22 15:51 |
|---|---|
| Airport | London Heathrow Airport (EGLL) |
| Time | Latitude | Longitude | Altitude | Speed | Heading |
|---|---|---|---|---|---|
| 2026-04-22 14:44 | 49.43281 | -2.59564 | 340 ft | 0 kts | 177° |
| 2026-04-22 15:01 | 49.43285 | -2.59564 | 337 ft | 2 kts | 177° |
| 2026-04-22 15:01 | 49.43305 | -2.59565 | 340 ft | 3 kts | 180° |
| 2026-04-22 15:01 | 49.43325 | -2.59564 | 335 ft | 3 kts | 186° |
| 2026-04-22 15:02 | 49.43344 | -2.59559 | 336 ft | 3 kts | 201° |
| 2026-04-22 15:02 | 49.43360 | -2.59546 | 336 ft | 3 kts | 240° |
| 2026-04-22 15:02 | 49.43364 | -2.59533 | 334 ft | 0 kts | 267° |
| 2026-04-22 15:06 | 49.43364 | -2.59535 | 334 ft | 2 kts | 267° |
| 2026-04-22 15:06 | 49.43361 | -2.59611 | 338 ft | 10 kts | 266° |
| 2026-04-22 15:06 | 49.43351 | -2.59746 | 335 ft | 15 kts | 258° |
| 2026-04-22 15:06 | 49.43343 | -2.59925 | 340 ft | 18 kts | 268° |
| 2026-04-22 15:07 | 49.43337 | -2.60138 | 340 ft | 21 kts | 268° |
| 2026-04-22 15:07 | 49.43330 | -2.60380 | 340 ft | 24 kts | 268° |
| 2026-04-22 15:07 | 49.43326 | -2.60562 | 337 ft | 15 kts | 270° |
| 2026-04-22 15:07 | 49.43341 | -2.60732 | 338 ft | 17 kts | 280° |
| 2026-04-22 15:08 | 49.43363 | -2.60925 | 338 ft | 19 kts | 277° |
| 2026-04-22 15:08 | 49.43361 | -2.61109 | 340 ft | 8 kts | 267° |
| 2026-04-22 15:08 | 49.43359 | -2.61177 | 340 ft | 4 kts | 268° |
| 2026-04-22 15:08 | 49.43359 | -2.61194 | 340 ft | 3 kts | 268° |
| 2026-04-22 15:09 | 49.43358 | -2.61216 | 340 ft | 0 kts | 268° |
| 2026-04-22 15:09 | 49.43363 | -2.61249 | 340 ft | 7 kts | 289° |
| 2026-04-22 15:09 | 49.43396 | -2.61317 | 350 ft | 8 kts | 311° |
| 2026-04-22 15:10 | 49.43432 | -2.61354 | 347 ft | 6 kts | 343° |
| 2026-04-22 15:10 | 49.43468 | -2.61321 | 352 ft | 7 kts | 72° |
| 2026-04-22 15:10 | 49.43467 | -2.61266 | 347 ft | 0 kts | 86° |
| 2026-04-22 15:10 | 49.43472 | -2.61152 | 348 ft | 41 kts | 87° |
| 2026-04-22 15:11 | 49.43496 | -2.60298 | 351 ft | 118 kts | 87° |
| 2026-04-22 15:11 | 49.43518 | -2.58831 | 807 ft | 141 kts | 87° |
| 2026-04-22 15:11 | 49.43549 | -2.57350 | 1758 ft | 139 kts | 88° |
| 2026-04-22 15:11 | 49.43592 | -2.55788 | 2308 ft | 156 kts | 89° |
| 2026-04-22 15:12 | 49.43641 | -2.53997 | 2740 ft | 180 kts | 91° |
| 2026-04-22 15:12 | 49.43697 | -2.52007 | 3410 ft | 191 kts | 91° |
| 2026-04-22 15:12 | 49.43960 | -2.49962 | 3965 ft | 207 kts | 68° |
| 2026-04-22 15:12 | 49.45067 | -2.48455 | 4010 ft | 226 kts | 29° |
| 2026-04-22 15:13 | 49.46587 | -2.47758 | 4012 ft | 229 kts | 20° |
| 2026-04-22 15:13 | 49.48142 | -2.47204 | 4012 ft | 232 kts | 19° |
| 2026-04-22 15:13 | 49.49850 | -2.46607 | 4024 ft | 267 kts | 19° |
| 2026-04-22 15:13 | 49.51704 | -2.45955 | 4839 ft | 277 kts | 18° |
| 2026-04-22 15:14 | 49.53603 | -2.45280 | 5888 ft | 281 kts | 18° |
| 2026-04-22 15:14 | 49.55508 | -2.44590 | 7029 ft | 282 kts | 18° |
| 2026-04-22 15:14 | 49.57424 | -2.43877 | 8071 ft | 285 kts | 17° |
| 2026-04-22 15:14 | 49.59342 | -2.43155 | 9106 ft | 289 kts | 16° |
| 2026-04-22 15:15 | 49.61330 | -2.42396 | 10124 ft | 293 kts | 17° |
| 2026-04-22 15:15 | 49.63321 | -2.41626 | 11036 ft | 297 kts | 15° |
| 2026-04-22 15:15 | 49.65343 | -2.40847 | 11926 ft | 302 kts | 15° |
| 2026-04-22 15:15 | 49.67399 | -2.40061 | 12789 ft | 307 kts | 15° |
| 2026-04-22 15:16 | 49.69414 | -2.38918 | 13672 ft | 311 kts | 28° |
| 2026-04-22 15:16 | 49.71233 | -2.37048 | 14246 ft | 325 kts | 42° |
| 2026-04-22 15:16 | 49.72824 | -2.34393 | 14501 ft | 347 kts | 51° |
| 2026-04-22 15:16 | 49.74395 | -2.31487 | 15034 ft | 357 kts | 51° |
| 2026-04-22 15:17 | 49.76003 | -2.28527 | 15715 ft | 362 kts | 51° |
| 2026-04-22 15:17 | 49.77636 | -2.25530 | 16441 ft | 366 kts | 51° |
| 2026-04-22 15:17 | 49.79288 | -2.22511 | 17187 ft | 369 kts | 50° |
| 2026-04-22 15:17 | 49.80955 | -2.19466 | 17914 ft | 373 kts | 50° |
| 2026-04-22 15:18 | 49.82650 | -2.16379 | 18592 ft | 378 kts | 50° |
| 2026-04-22 15:18 | 49.84363 | -2.13266 | 19045 ft | 381 kts | 50° |
| 2026-04-22 15:18 | 49.86086 | -2.10133 | 19183 ft | 382 kts | 50° |
| 2026-04-22 15:18 | 49.87832 | -2.06945 | 19219 ft | 391 kts | 50° |
| 2026-04-22 15:19 | 49.89616 | -2.03674 | 19223 ft | 393 kts | 50° |
| 2026-04-22 15:19 | 49.91377 | -2.00432 | 19232 ft | 393 kts | 50° |
| 2026-04-22 15:19 | 49.93139 | -1.97179 | 19229 ft | 393 kts | 51° |
| 2026-04-22 15:19 | 49.94900 | -1.93924 | 19231 ft | 394 kts | 50° |
| 2026-04-22 15:20 | 49.96065 | -1.91774 | 19245 ft | 393 kts | 50° |
| 2026-04-22 15:20 | 49.98434 | -1.87449 | 19242 ft | 393 kts | 47° |
| 2026-04-22 15:20 | 50.00449 | -1.84591 | 19241 ft | 393 kts | 37° |
| 2026-04-22 15:20 | 50.02763 | -1.82326 | 19239 ft | 394 kts | 27° |
| 2026-04-22 15:21 | 50.05194 | -1.80413 | 19262 ft | 393 kts | 26° |
| 2026-04-22 15:21 | 50.07637 | -1.78488 | 19272 ft | 392 kts | 26° |
| 2026-04-22 15:21 | 50.10062 | -1.76570 | 19272 ft | 390 kts | 27° |
| 2026-04-22 15:21 | 50.12429 | -1.74500 | 19270 ft | 390 kts | 33° |
| 2026-04-22 15:22 | 50.14561 | -1.71893 | 19277 ft | 390 kts | 40° |
| 2026-04-22 15:22 | 50.16645 | -1.69177 | 19275 ft | 389 kts | 39° |
| 2026-04-22 15:22 | 50.18727 | -1.66475 | 19267 ft | 389 kts | 39° |
| 2026-04-22 15:22 | 50.20102 | -1.64692 | 19275 ft | 389 kts | 39° |
| 2026-04-22 15:23 | 50.22184 | -1.61995 | 19274 ft | 388 kts | 39° |
| 2026-04-22 15:23 | 50.24262 | -1.59304 | 19271 ft | 388 kts | 39° |
| 2026-04-22 15:23 | 50.26466 | -1.56893 | 19274 ft | 387 kts | 29° |
| 2026-04-22 15:23 | 50.28906 | -1.55132 | 19263 ft | 386 kts | 19° |
| 2026-04-22 15:24 | 50.31468 | -1.53855 | 19274 ft | 386 kts | 17° |
| 2026-04-22 15:24 | 50.34027 | -1.52606 | 19262 ft | 386 kts | 17° |
| 2026-04-22 15:24 | 50.36594 | -1.51355 | 19261 ft | 386 kts | 17° |
| 2026-04-22 15:24 | 50.39157 | -1.50103 | 19270 ft | 386 kts | 17° |
| 2026-04-22 15:25 | 50.41755 | -1.48830 | 19272 ft | 386 kts | 17° |
| 2026-04-22 15:25 | 50.44313 | -1.47576 | 19283 ft | 385 kts | 17° |
| 2026-04-22 15:25 | 50.46878 | -1.46319 | 19282 ft | 385 kts | 17° |
| 2026-04-22 15:25 | 50.49429 | -1.45062 | 19278 ft | 385 kts | 17° |
| 2026-04-22 15:26 | 50.51983 | -1.43800 | 19267 ft | 385 kts | 17° |
| 2026-04-22 15:26 | 50.54476 | -1.42296 | 19267 ft | 385 kts | 25° |
| 2026-04-22 15:26 | 50.56832 | -1.40293 | 19276 ft | 385 kts | 28° |
| 2026-04-22 15:26 | 50.59180 | -1.38267 | 19271 ft | 384 kts | 27° |
| 2026-04-22 15:27 | 50.61511 | -1.36260 | 19272 ft | 381 kts | 27° |
| 2026-04-22 15:27 | 50.63836 | -1.34260 | 19269 ft | 380 kts | 28° |
| 2026-04-22 15:27 | 50.66154 | -1.32269 | 19278 ft | 379 kts | 28° |
| 2026-04-22 15:27 | 50.68475 | -1.30275 | 19273 ft | 380 kts | 28° |
| 2026-04-22 15:28 | 50.70791 | -1.28282 | 19272 ft | 379 kts | 28° |
| 2026-04-22 15:28 | 50.73110 | -1.26279 | 19273 ft | 380 kts | 28° |
| 2026-04-22 15:28 | 50.75431 | -1.24273 | 19277 ft | 379 kts | 28° |
| 2026-04-22 15:28 | 50.77717 | -1.22205 | 19276 ft | 380 kts | 31° |
| 2026-04-22 15:29 | 50.79930 | -1.20015 | 19280 ft | 370 kts | 32° |
| 2026-04-22 15:29 | 50.82072 | -1.17777 | 19156 ft | 367 kts | 33° |
| 2026-04-22 15:29 | 50.84184 | -1.15527 | 17933 ft | 370 kts | 34° |
| 2026-04-22 15:30 | 50.88290 | -1.11173 | 16482 ft | 350 kts | 34° |
| 2026-04-22 15:30 | 50.90301 | -1.09073 | 15985 ft | 335 kts | 35° |
| 2026-04-22 15:30 | 50.92226 | -1.07079 | 15500 ft | 331 kts | 36° |
| 2026-04-22 15:30 | 50.94156 | -1.05078 | 14989 ft | 331 kts | 37° |
| 2026-04-22 15:31 | 50.96076 | -1.03079 | 14483 ft | 331 kts | 36° |
| 2026-04-22 15:31 | 50.98003 | -1.01074 | 13954 ft | 330 kts | 38° |
| 2026-04-22 15:31 | 50.99905 | -0.99048 | 13416 ft | 328 kts | 41° |
| 2026-04-22 15:31 | 51.00250 | -0.98621 | 13327 ft | 326 kts | 42° |
| 2026-04-22 15:32 | 51.01871 | -0.96084 | 12889 ft | 331 kts | 52° |
| 2026-04-22 15:32 | 51.03404 | -0.93328 | 12466 ft | 334 kts | 51° |
| 2026-04-22 15:32 | 51.04949 | -0.90574 | 12034 ft | 333 kts | 51° |
| 2026-04-22 15:32 | 51.06488 | -0.87843 | 11601 ft | 330 kts | 52° |
| 2026-04-22 15:33 | 51.08017 | -0.85132 | 11164 ft | 328 kts | 51° |
| 2026-04-22 15:33 | 51.09534 | -0.82438 | 10779 ft | 324 kts | 52° |
| 2026-04-22 15:33 | 51.10999 | -0.79842 | 10653 ft | 309 kts | 52° |
| 2026-04-22 15:33 | 51.12404 | -0.77347 | 10534 ft | 295 kts | 53° |
| 2026-04-22 15:34 | 51.13744 | -0.74952 | 10329 ft | 287 kts | 53° |
| 2026-04-22 15:34 | 51.15053 | -0.72602 | 10145 ft | 282 kts | 52° |
| 2026-04-22 15:34 | 51.16348 | -0.70269 | 10017 ft | 281 kts | 53° |
| 2026-04-22 15:34 | 51.17639 | -0.67940 | 9790 ft | 280 kts | 53° |
| 2026-04-22 15:35 | 51.18925 | -0.65626 | 9453 ft | 278 kts | 53° |
| 2026-04-22 15:35 | 51.20222 | -0.63299 | 9115 ft | 276 kts | 53° |
| 2026-04-22 15:35 | 51.21493 | -0.61017 | 8774 ft | 274 kts | 53° |
| 2026-04-22 15:35 | 51.22738 | -0.58778 | 8621 ft | 265 kts | 53° |
| 2026-04-22 15:36 | 51.23937 | -0.56623 | 8486 ft | 256 kts | 54° |
| 2026-04-22 15:36 | 51.25103 | -0.54527 | 8219 ft | 247 kts | 53° |
| 2026-04-22 15:36 | 51.26219 | -0.52517 | 7970 ft | 239 kts | 53° |
| 2026-04-22 15:36 | 51.27391 | -0.50655 | 7720 ft | 242 kts | 39° |
| 2026-04-22 15:37 | 51.29004 | -0.49769 | 7469 ft | 253 kts | 7° |
| 2026-04-22 15:37 | 51.30723 | -0.50389 | 7334 ft | 263 kts | 332° |
| 2026-04-22 15:37 | 51.32038 | -0.52474 | 7323 ft | 268 kts | 297° |
| 2026-04-22 15:37 | 51.32608 | -0.55303 | 7321 ft | 268 kts | 282° |
| 2026-04-22 15:38 | 51.33132 | -0.58165 | 7324 ft | 268 kts | 287° |
| 2026-04-22 15:38 | 51.34298 | -0.63613 | 7317 ft | 245 kts | 288° |
| 2026-04-22 15:38 | 51.34837 | -0.66104 | 7289 ft | 230 kts | 287° |
| 2026-04-22 15:39 | 51.35334 | -0.68515 | 7013 ft | 230 kts | 287° |
| 2026-04-22 15:39 | 51.35824 | -0.70957 | 6658 ft | 232 kts | 286° |
| 2026-04-22 15:39 | 51.36319 | -0.73451 | 6189 ft | 234 kts | 286° |
| 2026-04-22 15:39 | 51.36804 | -0.75916 | 5779 ft | 231 kts | 286° |
| 2026-04-22 15:40 | 51.37276 | -0.78357 | 5372 ft | 228 kts | 285° |
| 2026-04-22 15:40 | 51.37656 | -0.80807 | 4963 ft | 225 kts | 282° |
| 2026-04-22 15:40 | 51.37929 | -0.83259 | 4549 ft | 223 kts | 274° |
| 2026-04-22 15:40 | 51.38048 | -0.85717 | 4139 ft | 221 kts | 271° |
| 2026-04-22 15:41 | 51.38138 | -0.88155 | 4011 ft | 213 kts | 271° |
| 2026-04-22 15:41 | 51.38221 | -0.90507 | 4022 ft | 216 kts | 271° |
| 2026-04-22 15:41 | 51.38340 | -0.92925 | 3981 ft | 216 kts | 280° |
| 2026-04-22 15:41 | 51.38884 | -0.95143 | 3988 ft | 214 kts | 306° |
| 2026-04-22 15:42 | 51.39912 | -0.96817 | 4005 ft | 208 kts | 329° |
| 2026-04-22 15:42 | 51.41185 | -0.97775 | 4004 ft | 200 kts | 349° |
| 2026-04-22 15:42 | 51.42534 | -0.98063 | 4007 ft | 193 kts | 5° |
| 2026-04-22 15:42 | 51.43870 | -0.98114 | 4003 ft | 193 kts | 6° |
| 2026-04-22 15:43 | 51.45175 | -0.97834 | 3995 ft | 186 kts | 27° |
| 2026-04-22 15:43 | 51.46168 | -0.96664 | 4008 ft | 174 kts | 55° |
| 2026-04-22 15:43 | 51.46829 | -0.95067 | 3893 ft | 171 kts | 65° |
| 2026-04-22 15:43 | 51.47358 | -0.93391 | 3593 ft | 165 kts | 79° |
| 2026-04-22 15:44 | 51.47421 | -0.91577 | 3318 ft | 163 kts | 89° |
| 2026-04-22 15:44 | 51.47476 | -0.89768 | 3070 ft | 160 kts | 88° |
| 2026-04-22 15:44 | 51.47508 | -0.87970 | 2999 ft | 161 kts | 89° |
| 2026-04-22 15:44 | 51.47529 | -0.86174 | 3001 ft | 159 kts | 89° |
| 2026-04-22 15:45 | 51.47544 | -0.84387 | 3002 ft | 161 kts | 89° |
| 2026-04-22 15:45 | 51.47558 | -0.82602 | 3002 ft | 159 kts | 89° |
| 2026-04-22 15:45 | 51.47571 | -0.80820 | 3005 ft | 161 kts | 90° |
| 2026-04-22 15:45 | 51.47583 | -0.79023 | 2998 ft | 161 kts | 90° |
| 2026-04-22 15:46 | 51.47595 | -0.77212 | 3006 ft | 162 kts | 90° |
| 2026-04-22 15:46 | 51.47607 | -0.75403 | 3011 ft | 161 kts | 89° |
| 2026-04-22 15:46 | 51.47618 | -0.73613 | 3009 ft | 160 kts | 89° |
| 2026-04-22 15:46 | 51.47629 | -0.71819 | 2915 ft | 161 kts | 89° |
| 2026-04-22 15:47 | 51.47640 | -0.70042 | 2739 ft | 159 kts | 89° |
| 2026-04-22 15:47 | 51.47651 | -0.68248 | 2534 ft | 161 kts | 89° |
| 2026-04-22 15:47 | 51.47661 | -0.66451 | 2321 ft | 161 kts | 89° |
| 2026-04-22 15:47 | 51.47670 | -0.64695 | 2105 ft | 151 kts | 89° |
| 2026-04-22 15:48 | 51.47679 | -0.63060 | 1906 ft | 142 kts | 89° |
| 2026-04-22 15:48 | 51.47688 | -0.61509 | 1724 ft | 139 kts | 88° |
| 2026-04-22 15:48 | 51.47696 | -0.59949 | 1534 ft | 140 kts | 88° |
| 2026-04-22 15:48 | 51.47703 | -0.58420 | 1339 ft | 131 kts | 89° |
| 2026-04-22 15:49 | 51.47710 | -0.56984 | 1169 ft | 125 kts | 88° |
| 2026-04-22 15:49 | 51.47717 | -0.55616 | 994 ft | 123 kts | 88° |
| 2026-04-22 15:49 | 51.47723 | -0.54233 | 837 ft | 121 kts | 89° |
| 2026-04-22 15:49 | 51.47729 | -0.52902 | 674 ft | 121 kts | 90° |
| 2026-04-22 15:50 | 51.47745 | -0.51555 | 496 ft | 119 kts | 90° |
| 2026-04-22 15:50 | 51.47747 | -0.50157 | 331 ft | 126 kts | 91° |
| 2026-04-22 15:50 | 51.47752 | -0.48761 | 170 ft | 125 kts | 92° |
| 2026-04-22 15:50 | 51.47753 | -0.47444 | 88 ft | 104 kts | 85° |
| 2026-04-22 15:51 | 51.47757 | -0.46516 | 91 ft | 63 kts | 90° |
| 2026-04-22 15:51 | 51.47749 | -0.46211 | 89 ft | 20 kts | 115° |
| 2026-04-22 15:51 | 51.47659 | -0.46095 | 89 ft | 0 kts | 145° |
| 2026-04-22 15:51 | 51.47626 | -0.46078 | 87 ft | 12 kts | 181° |
| 2026-04-22 15:52 | 51.47593 | -0.46210 | 86 ft | 16 kts | 271° |
| 2026-04-22 15:52 | 51.47594 | -0.46411 | 86 ft | 20 kts | 270° |
| 2026-04-22 15:52 | 51.47592 | -0.46647 | 86 ft | 22 kts | 269° |
| 2026-04-22 15:52 | 51.47590 | -0.46820 | 86 ft | 24 kts | 264° |
| 2026-04-22 15:53 | 51.47582 | -0.47101 | 88 ft | 27 kts | 270° |
| 2026-04-22 15:53 | 51.47581 | -0.47414 | 89 ft | 29 kts | 270° |
| 2026-04-22 15:53 | 51.47580 | -0.47758 | 89 ft | 32 kts | 269° |
| 2026-04-22 15:53 | 51.47579 | -0.48085 | 86 ft | 26 kts | 270° |
| 2026-04-22 15:54 | 51.47576 | -0.48310 | 86 ft | 15 kts | 258° |
| 2026-04-22 15:54 | 51.47478 | -0.48360 | 86 ft | 18 kts | 179° |
| 2026-04-22 15:54 | 51.47339 | -0.48359 | 86 ft | 22 kts | 180° |
| 2026-04-22 15:54 | 51.47173 | -0.48357 | 86 ft | 26 kts | 179° |
| 2026-04-22 15:55 | 51.47009 | -0.48356 | 86 ft | 24 kts | 180° |
| 2026-04-22 15:55 | 51.46894 | -0.48368 | 86 ft | 15 kts | 211° |
| 2026-04-22 15:55 | 51.46878 | -0.48520 | 86 ft | 12 kts | 270° |
| 2026-04-22 15:55 | 51.46891 | -0.48573 | 90 ft | 5 kts | 332° |
| 2026-04-22 15:56 | 51.46928 | -0.48573 | 86 ft | 0 kts | 359° |
| 2026-04-22 15:56 | 51.46932 | -0.48573 | 86 ft | 0 kts | 359° |